Festivo — EAEQ — position and weather

sailwx.info

Track history (hours):
 
Tides and Currents Weather Stations Pressure Air Temp Water Temp Dewpoint Dewpoint Depression Visibility Wind Speed Wind Dir Waves Ship Positions

Festivo

Last reported at 2015-Jun-30 09:31 UTC. Time now 2015-Jul-01 01:49 UTC.
Position N 35°59' W 005°13'.

Length 136 m; draft 4.5 m.

Type: Cargo ship. MMSI: 225410000.

Date/timePositionNaut miles runAvg speedWind from/ knotsBaromVisibWave heightAir tempDewpointWater temp
2015-Jun-30 09:31N 35°59' W 005°13'8 8.0
2015-Jun-30 08:33N 35°54' W 005°19'0 0.0
2015-Jun-30 07:33N 35°54' W 005°19'0 0.0
2015-Jun-30 06:33N 35°54' W 005°19'0 0.0
2015-Jun-30 05:33N 35°54' W 005°19'1 0.7
2015-Jun-30 04:33N 35°54' W 005°19'6 6.1
2015-Jun-30 03:33N 35°57' W 005°12'116 2.8
2015-Jun-28 09:31N 35°24' W 002°55'7 3.6
2015-Jun-28 07:33N 35°17' W 002°56'39 4.9
2015-Jun-27 23:33N 35°36' W 003°37'7410.5
2015-Jun-27 16:33N 35°53' W 005°06'10 9.9
2015-Jun-27 15:33N 35°56' W 005°17'3 2.5
2015-Jun-27 14:33N 35°54' W 005°19'0 0.0
2015-Jun-27 13:33N 35°54' W 005°19'0 0.0
2015-Jun-27 12:33N 35°54' W 005°19'0 0.0
2015-Jun-27 11:33N 35°54' W 005°19'0 0.0
2015-Jun-27 10:33N 35°54' W 005°19'0 0.0
2015-Jun-27 09:33N 35°54' W 005°19'0 0.0
2015-Jun-27 08:33N 35°54' W 005°19'0 0.0
2015-Jun-27 07:33N 35°54' W 005°19'0 0.0
2015-Jun-27 06:33N 35°54' W 005°19'0 0.1
2015-Jun-27 05:33N 35°54' W 005°19'5 5.2
2015-Jun-27 04:33N 35°58' W 005°15'4 0.1
2015-Jun-25 10:32N 36°01' W 005°13'9 9.1
2015-Jun-25 09:33N 35°54' W 005°19'0 0.0
2015-Jun-25 08:33N 35°54' W 005°19'0 0.0
2015-Jun-25 07:33N 35°54' W 005°19'0 0.0
2015-Jun-25 06:33N 35°54' W 005°19'3 3.3
2015-Jun-25 05:33N 35°56' W 005°16'  
2015-Jun-20 16:33N 35°55' W 005°10'8 7.9
2015-Jun-20 15:33N 35°54' W 005°19'0 0.0
2015-Jun-20 14:27N 35°54' W 005°19'0 0.0
2015-Jun-20 13:33N 35°54' W 005°19'0 0.0
2015-Jun-20 12:33N 35°54' W 005°19'0 0.0
2015-Jun-20 11:33N 35°54' W 005°19'0 0.0
2015-Jun-20 10:33N 35°54' W 005°19'0 0.0
2015-Jun-20 09:33N 35°54' W 005°19'  
Track history (hours):
 
Tides and Currents Weather Stations Pressure Air Temp Water Temp Dewpoint Dewpoint Depression Visibility Wind Speed Wind Dir Waves Ship Positions

Festivo

Last reported at 2015-Jun-30 09:31 UTC. Time now 2015-Jul-01 01:49 UTC.
Position N 35°59' W 005°13'.

Length 136 m; draft 4.5 m.

Type: Cargo ship. MMSI: 225410000.

Date/timePositionNaut miles runAvg speedWind from/ knotsBaromVisibWave heightAir tempDewpointWater temp
2015-Jun-30 09:31N 35°59' W 005°13'8 8.0
2015-Jun-30 08:33N 35°54' W 005°19'0 0.0
2015-Jun-30 07:33N 35°54' W 005°19'0 0.0
2015-Jun-30 06:33N 35°54' W 005°19'0 0.0
2015-Jun-30 05:33N 35°54' W 005°19'1 0.7
2015-Jun-30 04:33N 35°54' W 005°19'6 6.1
2015-Jun-30 03:33N 35°57' W 005°12'116 2.8
2015-Jun-28 09:31N 35°24' W 002°55'7 3.6
2015-Jun-28 07:33N 35°17' W 002°56'39 4.9
2015-Jun-27 23:33N 35°36' W 003°37'7410.5
2015-Jun-27 16:33N 35°53' W 005°06'10 9.9
2015-Jun-27 15:33N 35°56' W 005°17'3 2.5
2015-Jun-27 14:33N 35°54' W 005°19'0 0.0
2015-Jun-27 13:33N 35°54' W 005°19'0 0.0
2015-Jun-27 12:33N 35°54' W 005°19'0 0.0
2015-Jun-27 11:33N 35°54' W 005°19'0 0.0
2015-Jun-27 10:33N 35°54' W 005°19'0 0.0
2015-Jun-27 09:33N 35°54' W 005°19'0 0.0
2015-Jun-27 08:33N 35°54' W 005°19'0 0.0
2015-Jun-27 07:33N 35°54' W 005°19'0 0.0
2015-Jun-27 06:33N 35°54' W 005°19'0 0.1
2015-Jun-27 05:33N 35°54' W 005°19'5 5.2
2015-Jun-27 04:33N 35°58' W 005°15'4 0.1
2015-Jun-25 10:32N 36°01' W 005°13'9 9.1
2015-Jun-25 09:33N 35°54' W 005°19'0 0.0
2015-Jun-25 08:33N 35°54' W 005°19'0 0.0
2015-Jun-25 07:33N 35°54' W 005°19'0 0.0
2015-Jun-25 06:33N 35°54' W 005°19'3 3.3
2015-Jun-25 05:33N 35°56' W 005°16'  
2015-Jun-20 16:33N 35°55' W 005°10'8 7.9
2015-Jun-20 15:33N 35°54' W 005°19'0 0.0
2015-Jun-20 14:27N 35°54' W 005°19'0 0.0
2015-Jun-20 13:33N 35°54' W 005°19'0 0.0
2015-Jun-20 12:33N 35°54' W 005°19'0 0.0
2015-Jun-20 11:33N 35°54' W 005°19'0 0.0
2015-Jun-20 10:33N 35°54' W 005°19'0 0.0
2015-Jun-20 09:33N 35°54' W 005°19'  

Dump ship's entire track history